createdAt,value
2019-01-11T00:01:00.160Z,94210.67
2019-01-11T00:03:29.245Z,94213.44
2019-01-11T00:05:58.183Z,94227.89
2019-01-11T00:08:26.942Z,94227.09
2019-01-11T00:10:55.619Z,94227.67
2019-01-11T00:13:24.242Z,94239.84
2019-01-11T00:15:53.124Z,94235.85
2019-01-11T00:18:21.775Z,94246.80
2019-01-11T00:20:50.459Z,94250.89
2019-01-11T00:23:19.130Z,94258.18
2019-01-11T00:25:47.741Z,94262.55
2019-01-11T00:28:16.506Z,94272.19
2019-01-11T00:30:45.232Z,94282.16
2019-01-11T00:33:13.926Z,94274.73
2019-01-11T00:35:42.566Z,94292.25
2019-01-11T00:38:11.233Z,94296.91
2019-01-11T00:40:39.941Z,94298.70
2019-01-11T00:43:14.873Z,94316.19
2019-01-11T00:45:38.963Z,94317.48
2019-01-11T00:48:07.589Z,94320.57
2019-01-11T00:50:36.233Z,94337.02
2019-01-11T00:53:05.094Z,94337.00
2019-01-11T00:55:33.718Z,94346.16
2019-01-11T00:58:02.362Z,94352.80
2019-01-11T01:00:31.026Z,94343.39
2019-01-11T01:02:59.725Z,94336.66
2019-01-11T01:05:28.438Z,94344.33
2019-01-11T01:07:57.371Z,94345.77
2019-01-11T01:10:26.780Z,94356.59
2019-01-11T01:12:55.408Z,94365.62
2019-01-11T01:18:05.468Z,94365.45
2019-01-11T01:20:34.547Z,94376.37
2019-01-11T01:23:03.240Z,94380.98
2019-01-11T01:25:31.904Z,94385.26
2019-01-11T01:28:00.601Z,94386.24
2019-01-11T01:30:29.227Z,94380.52
2019-01-11T01:32:58.053Z,94387.42
2019-01-11T01:35:26.680Z,94390.13
2019-01-11T01:37:55.369Z,94391.51
2019-01-11T01:40:24.096Z,94391.52
2019-01-11T01:42:52.713Z,94378.30
2019-01-11T01:45:21.610Z,94392.64
2019-01-11T01:47:50.339Z,94396.12
2019-01-11T01:50:18.976Z,94391.55
2019-01-11T01:52:47.688Z,94395.97
2019-01-11T01:55:16.611Z,94388.53
2019-01-11T01:57:45.237Z,94388.34
2019-01-11T02:00:20.332Z,94391.80
2019-01-11T02:02:49.222Z,94391.82
2019-01-11T02:05:17.929Z,94400.45
2019-01-11T02:07:46.558Z,94402.55
2019-01-11T02:10:15.811Z,94402.37
2019-01-11T02:12:44.510Z,94398.36
2019-01-11T02:15:13.526Z,94416.52
2019-01-11T02:17:42.346Z,94413.84
2019-01-11T02:20:14.183Z,94424.56
2019-01-11T02:22:43.115Z,94425.53
2019-01-11T02:25:11.814Z,94424.77
2019-01-11T02:27:40.438Z,94428.59
2019-01-11T02:30:17.980Z,94424.16
2019-01-11T02:32:52.358Z,94432.97
2019-01-11T02:35:17.152Z,94438.52
2019-01-11T02:37:45.856Z,94434.11
2019-01-11T02:40:14.688Z,94438.89
2019-01-11T02:42:43.441Z,94435.44
2019-01-11T02:45:15.357Z,94434.50
2019-01-11T02:47:43.988Z,94437.75
2019-01-11T02:50:13.692Z,94438.12
2019-01-11T02:52:42.381Z,94436.97
2019-01-11T02:55:11.147Z,94441.00
2019-01-11T02:57:39.855Z,94439.45
2019-01-11T03:00:15.013Z,94450.73
2019-01-11T03:02:43.708Z,94455.52
2019-01-11T03:05:12.844Z,94452.08
2019-01-11T03:07:41.533Z,94453.41
2019-01-11T03:10:13.147Z,94454.36
2019-01-11T03:12:41.776Z,94460.64
2019-01-11T03:15:11.850Z,94460.83
2019-01-11T03:17:40.748Z,94465.20
2019-01-11T03:20:12.336Z,94470.36
2019-01-11T03:22:41.070Z,94471.70
2019-01-11T03:25:12.193Z,94477.60
2019-01-11T03:27:40.991Z,94469.97
2019-01-11T03:30:13.040Z,94484.11
2019-01-11T03:32:41.736Z,94481.80
2019-01-11T03:35:14.677Z,94494.96
2019-01-11T03:37:44.060Z,94498.03
2019-01-11T03:40:15.579Z,94493.95
2019-01-11T03:42:44.413Z,94502.77
2019-01-11T03:45:15.743Z,94502.61
2019-01-11T03:47:44.434Z,94499.50
2019-01-11T03:50:15.664Z,94501.39
2019-01-11T03:52:44.633Z,94519.90
2019-01-11T03:55:14.545Z,94509.00
2019-01-11T03:57:43.303Z,94524.08
2019-01-11T04:00:18.173Z,94532.48
2019-01-11T04:02:46.993Z,94535.53
2019-01-11T04:05:15.932Z,94534.55
2019-01-11T04:07:44.926Z,94536.09
2019-01-11T04:10:16.250Z,94536.13
2019-01-11T04:12:44.866Z,94539.55
2019-01-11T04:15:16.015Z,94542.36
2019-01-11T04:17:45.020Z,94548.22
2019-01-11T04:20:18.800Z,94551.08
2019-01-11T04:22:49.336Z,94555.34
2019-01-11T04:25:19.756Z,94561.05
2019-01-11T04:27:48.471Z,94569.23
2019-01-11T04:30:17.613Z,94566.02
2019-01-11T04:32:46.242Z,94572.86
2019-01-11T04:35:15.556Z,94577.05
2019-01-11T04:37:44.305Z,94581.30
2019-01-11T04:40:14.815Z,94590.84
2019-01-11T04:42:43.445Z,94598.00
2019-01-11T04:45:12.278Z,94584.81
2019-01-11T04:47:40.980Z,94596.84
2019-01-11T04:50:12.212Z,94591.66
2019-01-11T04:52:40.844Z,94598.19
2019-01-11T04:55:09.756Z,94604.87
2019-01-11T04:57:38.723Z,94609.75
2019-01-11T05:00:13.470Z,94608.20
2019-01-11T05:02:42.087Z,94604.96
2019-01-11T05:05:10.757Z,94608.83
2019-01-11T05:07:39.467Z,94615.53
2019-01-11T05:10:13.525Z,94616.39
2019-01-11T05:12:45.284Z,94616.37
2019-01-11T05:15:14.126Z,94618.45
2019-01-11T05:17:42.818Z,94616.11
2019-01-11T05:20:16.666Z,94622.98
2019-01-11T05:22:43.694Z,94634.58
2019-01-11T05:25:12.406Z,94631.57
2019-01-11T05:27:41.078Z,94628.72
2019-01-11T05:30:12.682Z,94635.07
2019-01-11T05:32:41.389Z,94640.67
2019-01-11T05:35:10.225Z,94636.61
2019-01-11T05:37:38.848Z,94637.59
2019-01-11T05:40:16.053Z,94645.59
2019-01-11T05:42:44.755Z,94648.50
2019-01-11T05:45:13.662Z,94653.08
2019-01-11T05:47:42.927Z,94655.59
2019-01-11T05:50:24.094Z,94653.58
2019-01-11T05:52:48.528Z,94650.43
2019-01-11T05:55:18.817Z,94657.55
2019-01-11T05:57:49.073Z,94661.18
2019-01-11T06:00:17.822Z,94659.44
2019-01-11T06:02:46.450Z,94669.88
2019-01-11T06:05:15.102Z,94664.73
2019-01-11T06:07:45.243Z,94673.41
2019-01-11T06:10:15.391Z,94673.04
2019-01-11T06:12:44.018Z,94676.13
2019-01-11T06:15:12.806Z,94674.98
2019-01-11T06:17:41.466Z,94676.78
2019-01-11T06:20:13.443Z,94685.75
2019-01-11T06:22:42.170Z,94683.78
2019-01-11T06:25:10.796Z,94683.61
2019-01-11T06:27:39.489Z,94682.05
2019-01-11T06:30:11.272Z,94684.47
2019-01-11T06:32:39.986Z,94692.00
2019-01-11T06:35:08.692Z,94680.34
2019-01-11T06:37:37.377Z,94690.25
2019-01-11T06:40:09.065Z,94696.74
2019-01-11T06:42:37.943Z,94695.16
2019-01-11T06:45:09.684Z,94703.70
2019-01-11T06:47:39.184Z,94706.83
2019-01-11T06:50:13.725Z,94715.75
2019-01-11T06:52:42.622Z,94712.54
2019-01-11T06:55:12.158Z,94712.54
2019-01-11T06:57:40.862Z,94712.34
2019-01-11T07:00:14.887Z,94715.17
2019-01-11T07:02:43.715Z,94714.10
2019-01-11T07:05:12.521Z,94714.10
2019-01-11T07:07:41.226Z,94715.81
2019-01-11T07:10:15.466Z,94720.98
2019-01-11T07:12:44.093Z,94724.65
2019-01-11T07:15:13.143Z,94726.52
2019-01-11T07:17:41.835Z,94726.77
2019-01-11T07:20:12.939Z,94727.16
2019-01-11T07:22:41.714Z,94721.59
2019-01-11T07:25:15.117Z,94720.94
2019-01-11T07:27:45.379Z,94725.35
2019-01-11T07:30:15.850Z,94729.73
2019-01-11T07:32:44.557Z,94729.25
2019-01-11T07:35:13.311Z,94733.67
2019-01-11T07:37:42.325Z,94734.34
2019-01-11T07:40:12.916Z,94737.71
2019-01-11T07:42:41.638Z,94730.87
2019-01-11T07:45:12.813Z,94728.91
2019-01-11T07:47:41.515Z,94724.17
2019-01-11T07:50:10.913Z,94729.92
2019-01-11T07:52:40.255Z,94734.13
2019-01-11T07:55:09.821Z,94735.66
2019-01-11T07:57:38.548Z,94742.73
2019-01-11T08:00:14.075Z,94742.25
2019-01-11T08:02:42.694Z,94743.77
2019-01-11T08:05:11.353Z,94746.05
2019-01-11T08:07:40.273Z,94750.23
2019-01-11T08:10:11.468Z,94747.12
2019-01-11T08:12:40.095Z,94756.78
2019-01-11T08:15:17.597Z,94758.59
2019-01-11T08:17:46.257Z,94768.25
2019-01-11T08:20:14.949Z,94767.11
2019-01-11T08:25:18.113Z,94777.31
2019-01-11T08:27:46.829Z,94774.50
2019-01-11T08:30:18.358Z,94770.23
2019-01-11T08:32:47.045Z,94793.05
2019-01-11T08:35:16.031Z,94781.98
2019-01-11T08:37:45.626Z,94785.59
2019-01-11T08:40:17.228Z,94794.13
2019-01-11T08:42:45.851Z,94788.23
2019-01-11T08:45:15.077Z,94790.13
2019-01-11T08:47:43.916Z,94796.75
2019-01-11T08:50:17.999Z,94799.48
2019-01-11T08:52:47.101Z,94811.91
2019-01-11T08:55:15.832Z,94812.40
2019-01-11T08:57:44.524Z,94804.80
2019-01-11T09:00:17.026Z,94808.59
2019-01-11T09:02:45.976Z,94812.63
2019-01-11T09:05:14.729Z,94820.79
2019-01-11T09:07:43.362Z,94815.10
2019-01-11T09:10:22.848Z,94817.32
2019-01-11T09:12:48.139Z,94815.59
2019-01-11T09:15:16.968Z,94813.88
2019-01-11T09:17:47.261Z,94820.20
2019-01-11T09:20:15.882Z,94812.26
2019-01-11T09:22:44.488Z,94816.18
2019-01-11T09:25:13.363Z,94802.63
2019-01-11T09:30:17.950Z,94801.09
2019-01-11T09:32:46.829Z,94806.92
2019-01-11T09:35:16.105Z,94801.33
2019-01-11T09:37:44.848Z,94809.67
2019-01-11T09:40:13.582Z,94806.01
2019-01-11T09:42:42.288Z,94804.20
2019-01-11T09:45:10.953Z,94813.83
2019-01-11T09:47:39.662Z,94800.13
2019-01-11T09:50:10.074Z,94815.17
2019-01-11T09:52:39.004Z,94811.08
2019-01-11T09:55:08.722Z,94806.67
2019-01-11T09:57:37.429Z,94808.83
2019-01-11T10:00:12.034Z,94802.77
2019-01-11T10:02:40.995Z,94805.00
2019-01-11T10:05:10.321Z,94811.29
2019-01-11T10:07:39.213Z,94807.09
2019-01-11T10:10:10.699Z,94800.03
2019-01-11T10:12:39.327Z,94798.52
2019-01-11T10:15:10.570Z,94799.45
2019-01-11T10:17:39.368Z,94803.80
2019-01-11T10:20:10.508Z,94808.11
2019-01-11T10:22:39.178Z,94809.13
2019-01-11T10:25:09.914Z,94808.89
2019-01-11T10:27:38.625Z,94815.19
2019-01-11T10:30:10.571Z,94814.53
2019-01-11T10:32:39.216Z,94821.13
2019-01-11T10:35:09.235Z,94822.47
2019-01-11T10:37:38.079Z,94820.78
2019-01-11T10:40:09.359Z,94819.81
2019-01-11T10:42:37.987Z,94819.45
2019-01-11T10:45:09.554Z,94822.32
2019-01-11T10:47:38.187Z,94814.61
2019-01-11T10:50:12.666Z,94817.34
2019-01-11T10:52:41.645Z,94812.72
2019-01-11T10:55:12.540Z,94810.44
2019-01-11T10:57:41.640Z,94818.88
2019-01-11T11:00:13.591Z,94821.93
2019-01-11T11:02:42.287Z,94834.16
2019-01-11T11:05:10.997Z,94825.63
2019-01-11T11:07:39.623Z,94821.00
2019-01-11T11:10:10.746Z,94825.50
2019-01-11T11:12:39.488Z,94820.66
2019-01-11T11:15:10.999Z,94815.17
2019-01-11T11:17:39.635Z,94818.95
2019-01-11T11:20:11.128Z,94823.05
2019-01-11T11:22:39.833Z,94825.40
2019-01-11T11:25:11.465Z,94830.73
2019-01-11T11:27:40.134Z,94836.86
2019-01-11T11:30:11.646Z,94835.31
2019-01-11T11:32:59.616Z,94835.34
2019-01-11T11:35:28.410Z,94845.04
2019-01-11T11:37:57.127Z,94845.22
2019-01-11T11:40:33.622Z,94848.83
2019-01-11T11:43:02.319Z,94854.35
2019-01-11T11:45:30.965Z,94854.09
2019-01-11T11:47:59.751Z,94853.77
2019-01-11T11:50:28.458Z,94858.27
2019-01-11T11:52:57.170Z,94860.77
2019-01-11T11:55:25.884Z,94858.34
2019-01-11T11:57:54.634Z,94863.67
2019-01-11T12:00:25.224Z,94854.22
2019-01-11T12:02:53.963Z,94867.27
2019-01-11T12:05:22.669Z,94869.88
2019-01-11T12:07:51.436Z,94867.48
2019-01-11T12:10:20.498Z,94874.03
2019-01-11T12:12:49.129Z,94873.47
2019-01-11T12:15:17.840Z,94878.81
2019-01-11T12:17:46.532Z,94876.41
2019-01-11T12:20:18.079Z,94877.39
2019-01-11T12:22:46.709Z,94881.99
2019-01-11T12:25:15.389Z,94882.25
2019-01-11T12:27:44.100Z,94889.78
2019-01-11T12:30:14.927Z,94888.45
2019-01-11T12:32:43.850Z,94887.70
2019-01-11T12:35:12.485Z,94885.91
2019-01-11T12:37:41.184Z,94884.88
2019-01-11T12:40:12.559Z,94882.50
2019-01-11T12:42:41.258Z,94883.25
2019-01-11T12:45:15.276Z,94885.89
2019-01-11T12:47:43.906Z,94883.75
2019-01-11T12:50:21.301Z,94888.73
2019-01-11T12:52:50.032Z,94883.08
2019-01-11T12:55:18.668Z,94882.90
2019-01-11T12:57:47.307Z,94892.13
2019-01-11T13:00:17.860Z,94891.30
2019-01-11T13:02:46.663Z,94899.61
2019-01-11T13:05:17.857Z,94893.27
2019-01-11T13:07:49.578Z,94899.63
2019-01-11T13:10:19.572Z,94900.81
2019-01-11T13:12:48.292Z,94904.12
2019-01-11T13:15:18.858Z,94909.78
2019-01-11T13:17:47.570Z,94914.48
2019-01-11T13:20:18.007Z,94913.16
2019-01-11T13:22:46.735Z,94911.59
2019-01-11T13:25:15.462Z,94910.84
2019-01-11T13:27:44.166Z,94918.95
2019-01-11T13:30:17.506Z,94923.20
2019-01-11T13:32:46.433Z,94923.20
2019-01-11T13:35:15.207Z,94919.48
2019-01-11T13:37:44.133Z,94911.42
2019-01-11T13:40:21.138Z,94912.56
2019-01-11T13:42:50.090Z,94925.08
2019-01-11T13:45:18.796Z,94925.08
2019-01-11T13:47:47.439Z,94926.04
2019-01-11T13:50:19.090Z,94926.04
2019-01-11T13:52:47.727Z,94939.67
2019-01-11T13:55:16.402Z,94933.13
2019-01-11T13:57:45.442Z,94933.14
2019-01-11T14:00:14.921Z,94933.14
2019-01-11T14:02:43.568Z,94920.62
2019-01-11T14:05:12.374Z,94920.62
2019-01-11T14:07:41.071Z,94927.16
2019-01-11T14:10:09.745Z,94933.89
2019-01-11T14:12:38.364Z,94936.37
2019-01-11T14:15:09.555Z,94940.25
2019-01-11T14:17:38.307Z,94940.84
2019-01-11T14:20:11.706Z,94926.78
2019-01-11T14:22:40.330Z,94943.70
2019-01-11T14:25:11.059Z,94948.14
2019-01-11T14:27:39.702Z,94949.30
2019-01-11T14:30:14.124Z,94948.31
2019-01-11T14:32:43.187Z,94949.31
2019-01-11T14:35:11.840Z,94961.02
2019-01-11T14:37:40.478Z,94956.05
2019-01-11T14:40:12.190Z,94950.84
2019-01-11T14:42:40.817Z,94956.22
2019-01-11T14:45:12.328Z,94960.08
2019-01-11T14:47:41.009Z,94952.00
2019-01-11T14:50:17.496Z,94951.03
2019-01-11T14:52:46.725Z,94951.03
2019-01-11T14:55:15.370Z,94957.97
2019-01-11T14:57:44.076Z,94955.85
2019-01-11T15:00:21.126Z,94948.94
2019-01-11T15:02:49.745Z,94956.42
2019-01-11T15:05:19.469Z,94951.61
2019-01-11T15:07:48.609Z,94944.51
2019-01-11T15:10:17.649Z,94944.51
2019-01-11T15:12:47.491Z,94958.36
2019-01-11T15:15:16.461Z,94959.91
2019-01-11T15:17:45.164Z,94971.23
2019-01-11T15:20:15.884Z,94969.11
2019-01-11T15:22:44.727Z,94972.01
2019-01-11T15:25:13.425Z,94979.67
2019-01-11T15:27:42.124Z,94981.80
2019-01-11T15:30:22.645Z,94985.66
2019-01-11T15:32:51.269Z,94990.44
2019-01-11T15:35:20.000Z,94997.94
2019-01-11T15:37:48.962Z,94992.56
2019-01-11T15:40:25.296Z,94992.19
2019-01-11T15:42:53.982Z,94988.16
2019-01-11T15:45:22.764Z,94985.84
2019-01-11T15:47:51.475Z,94994.11
2019-01-11T15:50:53.564Z,94986.41
2019-01-11T15:53:22.249Z,94990.06
2019-01-11T15:55:50.882Z,95001.20
2019-01-11T15:58:19.517Z,94986.98
2019-01-11T16:00:49.321Z,95002.95
2019-01-11T16:03:18.017Z,95004.67
2019-01-11T16:05:46.656Z,95004.30
2019-01-11T16:08:15.337Z,95006.02
2019-01-11T16:11:03.256Z,95006.79
2019-01-11T16:13:31.925Z,95006.22
2019-01-11T16:16:02.392Z,94999.69
2019-01-11T16:18:31.035Z,95004.67
2019-01-11T16:20:59.778Z,95007.56
2019-01-11T16:23:28.488Z,95007.56
2019-01-11T16:25:57.131Z,95009.68
2019-01-11T16:28:25.832Z,95014.86
2019-01-11T16:30:54.529Z,95014.86
2019-01-11T16:33:23.174Z,95009.28
2019-01-11T16:35:51.872Z,95009.28
2019-01-11T16:38:20.509Z,95017.92
2019-01-11T16:40:49.393Z,95017.35
2019-01-11T16:43:18.041Z,95016.98
2019-01-11T16:45:46.750Z,95028.88
2019-01-11T16:48:15.514Z,95024.84
2019-01-11T16:50:44.143Z,95024.84
2019-01-11T16:53:12.778Z,95028.89
2019-01-11T16:55:41.477Z,95022.16
2019-01-11T16:58:10.178Z,95011.20
2019-01-11T17:00:38.865Z,95011.20
2019-01-11T17:03:07.608Z,95025.05
2019-01-11T17:05:36.326Z,95026.97
2019-01-11T17:08:05.017Z,95028.69
2019-01-11T17:10:33.695Z,95030.03
2019-01-11T17:13:02.410Z,95026.56
2019-01-11T17:15:31.039Z,95030.43
2019-01-11T17:17:59.724Z,95041.37
2019-01-11T17:20:28.432Z,95034.64
2019-01-11T17:22:57.146Z,95037.94
2019-01-11T17:25:26.705Z,95037.94
2019-01-11T17:27:55.391Z,95045.23
2019-01-11T17:30:24.085Z,95052.53
2019-01-11T17:32:52.841Z,95043.11
2019-01-11T17:35:21.481Z,95043.11
2019-01-11T17:37:50.180Z,95038.10
2019-01-11T17:40:18.870Z,95036.75
2019-01-11T17:42:47.506Z,95046.94
2019-01-11T17:45:16.209Z,95047.30
2019-01-11T17:47:44.873Z,95050.20
2019-01-11T17:50:15.497Z,95042.70
2019-01-11T17:52:44.201Z,95037.33
2019-01-11T17:55:13.051Z,95051.34
2019-01-11T17:57:41.745Z,95053.86
2019-01-11T18:00:13.325Z,95053.86
2019-01-11T18:02:41.996Z,95048.86
2019-01-11T18:05:12.636Z,95060.02
2019-01-11T18:07:41.764Z,95051.17
2019-01-11T18:10:16.463Z,95053.67
2019-01-11T18:12:45.086Z,95055.42
2019-01-11T18:15:19.308Z,95061.53
2019-01-11T18:17:48.110Z,95053.66
2019-01-11T18:20:19.518Z,95055.00
2019-01-11T18:22:48.153Z,95055.57
2019-01-11T18:25:17.010Z,95053.08
2019-01-11T18:27:45.729Z,95064.06
2019-01-11T18:30:18.559Z,95064.78
2019-01-11T18:32:47.444Z,95071.14
2019-01-11T18:35:16.591Z,95054.42
2019-01-11T18:37:45.377Z,95058.45
2019-01-11T18:40:19.465Z,95064.20
2019-01-11T18:42:48.095Z,95068.25
2019-01-11T18:45:16.993Z,95068.83
2019-01-11T18:47:45.674Z,95064.41
2019-01-11T18:50:16.998Z,95077.08
2019-01-11T18:52:45.636Z,95072.50
2019-01-11T18:55:14.583Z,95074.20
2019-01-11T18:57:43.395Z,95074.41
2019-01-11T19:00:17.715Z,95068.03
2019-01-11T19:02:46.635Z,95075.16
2019-01-11T19:05:15.853Z,95072.64
2019-01-11T19:07:46.091Z,95067.48
2019-01-11T19:10:17.326Z,95069.02
2019-01-11T19:12:46.018Z,95069.39
2019-01-11T19:15:23.411Z,95069.39
2019-01-11T19:17:52.056Z,95069.23
2019-01-11T19:20:25.938Z,95083.84
2019-01-11T19:22:54.894Z,95080.37
2019-01-11T19:25:23.508Z,95083.81
2019-01-11T19:27:52.138Z,95076.16
2019-01-11T19:30:22.778Z,95079.58
2019-01-11T19:32:51.498Z,95082.11
2019-01-11T19:35:20.129Z,95080.94
2019-01-11T19:37:48.938Z,95082.62
2019-01-11T19:40:18.058Z,95083.61
2019-01-11T19:42:47.575Z,95084.00
2019-01-11T19:45:17.394Z,95081.45
2019-01-11T19:47:46.104Z,95095.51
2019-01-11T19:50:22.106Z,95095.51
2019-01-11T19:52:50.874Z,95084.00
2019-01-11T19:55:20.283Z,95079.56
2019-01-11T19:57:49.125Z,95075.70
2019-01-11T20:00:23.130Z,95073.39
2019-01-11T20:02:51.966Z,95074.75
2019-01-11T20:05:20.965Z,95078.41
2019-01-11T20:07:50.041Z,95076.28
2019-01-11T20:10:24.451Z,95070.16
2019-01-11T20:12:53.100Z,95070.16
2019-01-11T20:15:21.865Z,95078.63
2019-01-11T20:17:50.554Z,95074.17
2019-01-11T20:20:19.191Z,95073.62
2019-01-11T20:22:47.890Z,95073.62
2019-01-11T20:25:18.891Z,95067.02
2019-01-11T20:27:47.793Z,95075.88
2019-01-11T20:30:21.972Z,95066.86
2019-01-11T20:32:50.767Z,95066.30
2019-01-11T20:35:19.471Z,95063.98
2019-01-11T20:37:48.128Z,95058.03
2019-01-11T20:40:17.734Z,95052.45
2019-01-11T20:42:46.551Z,95062.60
2019-01-11T20:45:17.332Z,95053.73
2019-01-11T20:47:45.966Z,95056.23
2019-01-11T20:50:17.039Z,95050.84
2019-01-11T20:52:45.825Z,95060.67
2019-01-11T20:55:14.611Z,95054.91
2019-01-11T20:57:43.674Z,95061.23
2019-01-11T21:00:17.835Z,95061.23
2019-01-11T21:02:46.532Z,95065.03
2019-01-11T21:05:21.444Z,95064.84
2019-01-11T21:07:50.333Z,95064.06
2019-01-11T21:10:19.324Z,95061.59
2019-01-11T21:12:47.967Z,95042.98
2019-01-11T21:15:19.765Z,95054.09
2019-01-11T21:17:48.714Z,95053.73
2019-01-11T21:20:19.441Z,95054.68
2019-01-11T21:22:48.897Z,95054.45
2019-01-11T21:25:19.259Z,95055.98
2019-01-11T21:27:48.282Z,95052.73
2019-01-11T21:30:22.458Z,95043.67
2019-01-11T21:32:51.088Z,95038.74
2019-01-11T21:35:19.893Z,95030.67
2019-01-11T21:37:48.587Z,95034.28
2019-01-11T21:40:19.478Z,95020.91
2019-01-11T21:42:48.814Z,95020.34
2019-01-11T21:45:18.171Z,95016.09
2019-01-11T21:47:46.940Z,95019.72
2019-01-11T21:50:18.133Z,95028.34
2019-01-11T21:52:47.061Z,95034.12
2019-01-11T21:55:15.981Z,95029.52
2019-01-11T21:57:45.416Z,95031.61
2019-01-11T22:00:19.881Z,95029.88
2019-01-11T22:02:48.589Z,95027.41
2019-01-11T22:05:17.511Z,95033.36
2019-01-11T22:07:46.175Z,95032.58
2019-01-11T22:10:16.410Z,95027.78
2019-01-11T22:12:45.103Z,95030.65
2019-01-11T22:15:18.460Z,95037.58
2019-01-11T22:17:47.174Z,95036.23
2019-01-11T22:20:17.365Z,95029.89
2019-01-11T22:22:46.115Z,95028.00
2019-01-11T22:25:16.337Z,95027.38
2019-01-11T22:27:44.968Z,95022.38
2019-01-11T22:30:16.682Z,95019.49
2019-01-11T22:32:45.307Z,95028.12
2019-01-11T22:35:14.417Z,95035.98
2019-01-11T22:37:43.234Z,95041.39
2019-01-11T22:40:14.369Z,95051.56
2019-01-11T22:42:43.002Z,95055.19
2019-01-11T22:45:13.991Z,95058.47
2019-01-11T22:47:42.660Z,95058.05
2019-01-11T22:50:16.052Z,95044.06
2019-01-11T22:52:45.019Z,95046.20
2019-01-11T22:55:15.614Z,95040.20
2019-01-11T22:57:44.372Z,95032.91
2019-01-11T23:00:41.554Z,95032.91
2019-01-11T23:03:15.849Z,95046.72
2019-01-11T23:05:44.627Z,95039.04
2019-01-11T23:08:15.468Z,95047.10
2019-01-11T23:10:58.730Z,95044.21
2019-01-11T23:13:27.475Z,95036.55
2019-01-11T23:15:56.113Z,95030.98
2019-01-11T23:18:24.741Z,95030.75
2019-01-11T23:20:53.472Z,95030.98
2019-01-11T23:23:22.159Z,95032.88
2019-01-11T23:25:50.814Z,95028.30
2019-01-11T23:28:19.485Z,95028.49
2019-01-11T23:30:48.195Z,95028.48
2019-01-11T23:33:16.852Z,95033.09
2019-01-11T23:35:45.528Z,95028.55
2019-01-11T23:38:14.175Z,95010.66
2019-01-11T23:40:42.875Z,95012.18
2019-01-11T23:43:11.650Z,95011.81
2019-01-11T23:45:40.281Z,95001.41
2019-01-11T23:48:08.909Z,95001.29
2019-01-11T23:50:37.681Z,95003.58
2019-01-11T23:53:06.519Z,94993.80
2019-01-11T23:55:35.160Z,95009.70
2019-01-11T23:58:03.825Z,95007.00
